| time (UTC) | temp F | wind direction | speed MPH | gust MPH | rain 1hr in | rain 24hr in | rain mn in | humidity % | barometer mb |
| 20260503215416 | 60 | 214 | 13.0 | 15.0 | 0.00 | 0.00 | 0.00 | 50 | 1012.1 |
| 20260503214913 | 60 | 202 | 10.0 | 10.0 | 0.00 | 0.00 | 0.00 | 52 | 1012.0 |
| 20260503214411 | 60 | 195 | 12.0 | 13.0 | 0.00 | 0.00 | 0.00 | 49 | 1012.2 |
| 20260503213908 | 60 | 185 | 19.0 | 21.0 | 0.00 | 0.00 | 0.00 | 50 | 1012.3 |
| 20260503213406 | 60 | 204 | 17.0 | 22.0 | 0.00 | 0.00 | 0.00 | 50 | 1012.1 |
| 20260503212902 | 60 | 192 | 15.0 | 16.0 | 0.00 | 0.00 | 0.00 | 49 | 1012.3 |
| 20260503212400 | 61 | 197 | 19.0 | 23.0 | 0.00 | 0.00 | 0.00 | 48 | 1012.6 |
| 20260503211857 | 61 | 186 | 18.0 | 21.0 | 0.00 | 0.00 | 0.00 | 48 | 1012.8 |
| 20260503211354 | 60 | 189 | 13.0 | 16.0 | 0.00 | 0.00 | 0.00 | 49 | 1012.8 |
| 20260503210848 | 61 | 202 | 15.0 | 17.0 | 0.00 | 0.00 | 0.00 | 50 | 1013.2 |
| 20260503210346 | 61 | 221 | 15.0 | 20.0 | 0.00 | 0.00 | 0.00 | 50 | 1013.0 |
| 20260503205841 | 61 | 199 | 16.0 | 17.0 | 0.00 | 0.00 | 0.00 | 47 | 1013.0 |
| 20260503205338 | 61 | 198 | 19.0 | 22.0 | 0.00 | 0.00 | 0.00 | 47 | 1013.8 |
| 20260503204834 | 62 | 209 | 15.0 | 17.0 | 0.00 | 0.00 | 0.00 | 46 | 1013.5 |
| 20260503204332 | 62 | 194 | 17.0 | 21.0 | 0.00 | 0.00 | 0.00 | 45 | 1013.4 |
| 20260503203829 | 61 | 202 | 20.0 | 22.0 | 0.00 | 0.00 | 0.00 | 45 | 1013.5 |
| 20260503203326 | 61 | 201 | 14.0 | 17.0 | 0.00 | 0.00 | 0.00 | 46 | 1013.7 |
| 20260503202823 | 62 | 200 | 17.0 | 20.0 | 0.00 | 0.00 | 0.00 | 46 | 1013.8 |
| 20260503202321 | 62 | 208 | 18.0 | 20.0 | 0.00 | 0.00 | 0.00 | 44 | 1014.0 |
| 20260503201819 | 62 | 193 | 19.0 | 22.0 | 0.00 | 0.00 | 0.00 | 44 | 1014.1 |
| 20260503201316 | 62 | 216 | 21.0 | 23.0 | 0.00 | 0.00 | 0.00 | 46 | 1014.5 |
| 20260503200814 | 62 | 213 | 23.0 | 27.0 | 0.00 | 0.00 | 0.00 | 44 | 1014.6 |
| 20260503200309 | 61 | 202 | 16.0 | 18.0 | 0.00 | 0.00 | 0.00 | 46 | 1014.6 |
| 20260503195807 | 61 | 202 | 15.0 | 16.0 | 0.00 | 0.00 | 0.00 | 46 | 1015.1 |
| 20260503195304 | 61 | 217 | 19.0 | 22.0 | 0.00 | 0.00 | 0.00 | 44 | 1015.1 |
| 20260503194800 | 61 | 206 | 12.0 | 14.0 | 0.00 | 0.00 | 0.00 | 46 | 1015.5 |
| 20260503194256 | 61 | 197 | 15.0 | 16.0 | 0.00 | 0.00 | 0.00 | 48 | 1016.0 |
| 20260503193753 | 61 | 222 | 14.0 | 17.0 | 0.00 | 0.00 | 0.00 | 46 | 1015.9 |
| 20260503193249 | 61 | 221 | 23.0 | 24.0 | 0.00 | 0.00 | 0.00 | 44 | 1015.9 |
| 20260503192745 | 62 | 213 | 22.0 | 24.0 | 0.00 | 0.00 | 0.00 | 45 | 1015.9 |
| 20260503192240 | 62 | 209 | 14.0 | 16.0 | 0.00 | 0.00 | 0.00 | 48 | 1016.1 |
| 20260503191737 | 61 | 196 | 16.0 | 20.0 | 0.00 | 0.00 | 0.00 | 45 | 1016.1 |
| 20260503191234 | 61 | 216 | 21.0 | 23.0 | 0.00 | 0.00 | 0.00 | 46 | 1016.0 |
| 20260503190731 | 61 | 218 | 11.0 | 13.0 | 0.00 | 0.00 | 0.00 | 47 | 1016.2 |
| 20260503190227 | 61 | 200 | 16.0 | 21.0 | 0.00 | 0.00 | 0.00 | 47 | 1016.2 |
| 20260503185725 | 61 | 203 | 23.0 | 24.0 | 0.00 | 0.00 | 0.00 | 44 | 1016.2 |
| 20260503185220 | 61 | 195 | 16.0 | 18.0 | 0.00 | 0.00 | 0.00 | 45 | 1016.3 |
| 20260503184715 | 61 | 193 | 18.0 | 20.0 | 0.00 | 0.00 | 0.00 | 46 | 1016.1 |
| 20260503184211 | 62 | 219 | 15.0 | 20.0 | 0.00 | 0.00 | 0.00 | 48 | 1016.0 |
| 20260503183708 | 62 | 213 | 15.0 | 17.0 | 0.00 | 0.00 | 0.00 | 45 | 1016.1 |
| 20260503183205 | 61 | 169 | 18.0 | 21.0 | 0.00 | 0.00 | 0.00 | 46 | 1016.4 |
| 20260503182704 | 61 | 206 | 20.0 | 23.0 | 0.00 | 0.00 | 0.00 | 47 | 1016.4 |
| 20260503182202 | 61 | 206 | 15.0 | 17.0 | 0.00 | 0.00 | 0.00 | 50 | 1016.2 |
| 20260503181658 | 61 | 202 | 14.0 | 16.0 | 0.00 | 0.00 | 0.00 | 47 | 1016.4 |
| 20260503181155 | 61 | 205 | 18.0 | 22.0 | 0.00 | 0.00 | 0.00 | 46 | 1016.4 |
| 20260503180651 | 61 | 216 | 22.0 | 24.0 | 0.00 | 0.00 | 0.00 | 46 | 1016.5 |
| 20260503180150 | 61 | 215 | 18.0 | 22.0 | 0.00 | 0.00 | 0.00 | 46 | 1016.7 |
| 20260503175647 | 61 | 210 | 16.0 | 18.0 | 0.00 | 0.00 | 0.00 | 47 | 1016.7 |
| 20260503175144 | 61 | 207 | 22.0 | 24.0 | 0.00 | 0.00 | 0.00 | 46 | 1016.8 |
| 20260503174640 | 60 | 205 | 20.0 | 23.0 | 0.00 | 0.00 | 0.00 | 49 | 1017.2 |
| 20260503174137 | 60 | 225 | 19.0 | 21.0 | 0.00 | 0.00 | 0.00 | 49 | 1017.4 |
| 20260503173632 | 60 | 218 | 14.0 | 16.0 | 0.00 | 0.00 | 0.00 | 48 | 1017.3 |
| 20260503173129 | 61 | 209 | 22.0 | 26.0 | 0.00 | 0.00 | 0.00 | 48 | 1017.4 |
| 20260503172626 | 60 | 230 | 13.0 | 18.0 | 0.00 | 0.00 | 0.00 | 50 | 1017.7 |
| 20260503172124 | 60 | 216 | 22.0 | 27.0 | 0.00 | 0.00 | 0.00 | 50 | 1017.6 |
| 20260503171620 | 60 | 206 | 13.0 | 16.0 | 0.00 | 0.00 | 0.00 | 50 | 1017.7 |
| 20260503171117 | 60 | 214 | 18.0 | 21.0 | 0.00 | 0.00 | 0.00 | 51 | 1017.8 |
| 20260503170614 | 60 | 216 | 14.0 | 16.0 | 0.00 | 0.00 | 0.00 | 51 | 1017.8 |
| 20260503170111 | 60 | 201 | 17.0 | 18.0 | 0.00 | 0.00 | 0.00 | 50 | 1017.4 |
| 20260503151006 | 55 | 209 | 13.0 | 17.0 | 0.00 | 0.00 | 0.00 | 54 | 1018.6 |
| 20260503150502 | 55 | 212 | 15.0 | 17.0 | 0.00 | 0.00 | 0.00 | 56 | 1018.6 |
| 20260503131355 | 49 | 208 | 10.0 | 11.0 | 0.00 | 0.00 | 0.00 | 67 | 1018.4 |
| 20260503130853 | 48 | 221 | 15.0 | 16.0 | 0.00 | 0.00 | 0.00 | 66 | 1018.0 |
| 20260503130350 | 48 | 214 | 13.0 | 15.0 | 0.00 | 0.00 | 0.00 | 66 | 1018.1 |
| 20260503110744 | 40 | 200 | 7.0 | 8.0 | 0.00 | 0.00 | 0.00 | 75 | 1017.3 |
| 20260503110241 | 40 | 194 | 8.0 | 8.0 | 0.00 | 0.00 | 0.00 | 76 | 1017.3 |
| 20260503100207 | 40 | 199 | 6.0 | 7.0 | 0.00 | 0.00 | 0.00 | 75 | 1017.3 |
| 20260503090131 | 40 | 205 | 6.0 | 7.0 | 0.00 | 0.00 | 0.00 | 74 | 1017.6 |
| 20260503081602 | 40 | 201 | 5.0 | 6.0 | 0.00 | 0.00 | 0.00 | 74 | 1017.6 |
| 20260503081059 | 40 | 203 | 5.0 | 6.0 | 0.00 | 0.00 | 0.00 | 74 | 1017.7 |
| 20260503080554 | 40 | 202 | 5.0 | 6.0 | 0.00 | 0.00 | 0.00 | 75 | 1017.7 |
| 20260503072528 | 41 | 208 | 4.0 | 5.0 | 0.00 | 0.00 | 0.00 | 72 | 1017.6 |
| 20260503072026 | 41 | 202 | 4.0 | 5.0 | 0.00 | 0.00 | 0.00 | 72 | 1017.5 |
| 20260503071522 | 41 | 197 | 4.0 | 5.0 | 0.00 | 0.00 | 0.00 | 72 | 1017.8 |
| 20260503071019 | 41 | 199 | 5.0 | 6.0 | 0.00 | 0.00 | 0.00 | 73 | 1017.7 |
| 20260503070516 | 41 | 204 | 4.0 | 5.0 | 0.00 | 0.00 | 0.00 | 73 | 1017.8 |
| 20260503054939 | 39 | 177 | 0.0 | 0.0 | 0.00 | 0.00 | 0.00 | 89 | 1018.3 |
| 20260503054436 | 38 | 192 | 1.0 | 1.0 | 0.00 | 0.00 | 0.00 | 90 | 1018.5 |
| 20260503053933 | 38 | 181 | 0.0 | 1.0 | 0.00 | 0.00 | 0.00 | 92 | 1018.5 |
| 20260503053431 | 38 | 176 | 0.0 | 1.0 | 0.00 | 0.00 | 0.00 | 92 | 1018.6 |
| 20260503052927 | 38 | 161 | 0.0 | 0.0 | 0.00 | 0.00 | 0.00 | 92 | 1018.3 |
| 20260503052425 | 39 | 159 | 0.0 | 0.0 | 0.00 | 0.00 | 0.00 | 92 | 1018.5 |
| 20260503051921 | 39 | 159 | 1.0 | 1.0 | 0.00 | 0.00 | 0.00 | 91 | 1018.5 |
| 20260503051417 | 39 | 158 | 1.0 | 1.0 | 0.00 | 0.00 | 0.00 | 91 | 1018.6 |
| 20260503050914 | 38 | 156 | 0.0 | 1.0 | 0.00 | 0.00 | 0.00 | 91 | 1018.7 |
| 20260503050410 | 39 | 156 | 0.0 | 0.0 | 0.00 | 0.00 | 0.00 | 91 | 1018.5 |
| 20260503045908 | 39 | 156 | 0.0 | 0.0 | 0.00 | 0.00 | 0.00 | 91 | 1018.6 |
| 20260503045405 | 38 | 156 | 0.0 | 0.0 | 0.00 | 0.00 | 0.00 | 91 | 1018.6 |
| 20260503044902 | 38 | 156 | 0.0 | 0.0 | 0.00 | 0.00 | 0.00 | 90 | 1018.6 |
| 20260503044359 | 38 | 156 | 0.0 | 0.0 | 0.00 | 0.00 | 0.00 | 89 | 1018.6 |
| 20260503043856 | 39 | 156 | 0.0 | 0.0 | 0.00 | 0.00 | 0.00 | 89 | 1018.8 |
| 20260503043353 | 39 | 156 | 0.0 | 0.0 | 0.00 | 0.00 | 0.00 | 87 | 1018.6 |
| 20260503042849 | 39 | 156 | 0.0 | 0.0 | 0.00 | 0.00 | 0.00 | 87 | 1018.7 |
| 20260503042346 | 39 | 154 | 0.0 | 0.0 | 0.00 | 0.00 | 0.00 | 87 | 1018.6 |
| 20260503041841 | 39 | 163 | 0.0 | 0.0 | 0.00 | 0.00 | 0.00 | 87 | 1018.7 |
| 20260503041339 | 39 | 163 | 0.0 | 0.0 | 0.00 | 0.00 | 0.00 | 89 | 1018.7 |
| 20260503040837 | 39 | 163 | 0.0 | 0.0 | 0.00 | 0.00 | 0.00 | 89 | 1018.7 |
| 20260503040334 | 39 | 163 | 0.0 | 0.0 | 0.00 | 0.00 | 0.00 | 88 | 1018.7 |
| 20260503035831 | 39 | 163 | 0.0 | 0.0 | 0.00 | 0.00 | 0.00 | 87 | 1019.0 |
| 20260503035328 | 40 | 162 | 0.0 | 0.0 | 0.00 | 0.00 | 0.00 | 87 | 1018.7 |
| 20260503034825 | 40 | 163 | 0.0 | 0.0 | 0.00 | 0.00 | 0.00 | 87 | 1019.0 |
| 20260503034323 | 40 | 153 | 0.0 | 0.0 | 0.00 | 0.00 | 0.00 | 87 | 1019.0 |
| 20260503033820 | 40 | 153 | 0.0 | 0.0 | 0.00 | 0.00 | 0.00 | 85 | 1018.8 |
| 20260503033317 | 40 | 153 | 0.0 | 0.0 | 0.00 | 0.00 | 0.00 | 84 | 1018.7 |
| 20260503032815 | 41 | 152 | 0.0 | 0.0 | 0.00 | 0.00 | 0.00 | 82 | 1018.7 |
| 20260503032314 | 40 | 150 | 0.0 | 1.0 | 0.00 | 0.00 | 0.00 | 81 | 1019.0 |
| 20260503031811 | 40 | 154 | 0.0 | 0.0 | 0.00 | 0.00 | 0.00 | 84 | 1019.0 |
| 20260503031309 | 40 | 154 | 0.0 | 0.0 | 0.00 | 0.00 | 0.00 | 85 | 1018.8 |
| 20260503030804 | 40 | 155 | 0.0 | 0.0 | 0.00 | 0.00 | 0.00 | 85 | 1019.0 |
| 20260503030301 | 40 | 155 | 0.0 | 0.0 | 0.00 | 0.00 | 0.00 | 84 | 1018.8 |
| 20260503025758 | 40 | 155 | 0.0 | 0.0 | 0.00 | 0.00 | 0.00 | 83 | 1019.0 |
| 20260503025255 | 41 | 153 | 0.0 | 0.0 | 0.00 | 0.00 | 0.00 | 82 | 1019.2 |
| 20260503024752 | 40 | 152 | 0.0 | 0.0 | 0.00 | 0.00 | 0.00 | 79 | 1019.2 |
| 20260503024249 | 41 | 148 | 0.0 | 0.0 | 0.00 | 0.00 | 0.00 | 82 | 1019.2 |
| 20260503023746 | 41 | 149 | 0.0 | 0.0 | 0.00 | 0.00 | 0.00 | 81 | 1018.8 |
| 20260503023243 | 41 | 157 | 1.0 | 2.0 | 0.00 | 0.00 | 0.00 | 75 | 1019.1 |
| 20260503022739 | 42 | 191 | 1.0 | 1.0 | 0.00 | 0.00 | 0.00 | 77 | 1019.0 |
| 20260503022239 | 42 | 191 | 0.0 | 0.0 | 0.00 | 0.00 | 0.00 | 75 | 1019.0 |
| 20260503021736 | 42 | 191 | 0.0 | 0.0 | 0.00 | 0.00 | 0.00 | 74 | 1019.1 |
| 20260503021232 | 42 | 192 | 0.0 | 0.0 | 0.00 | 0.00 | 0.00 | 80 | 1018.7 |
| 20260503020730 | 42 | 192 | 1.0 | 1.0 | 0.00 | 0.00 | 0.00 | 81 | 1018.7 |
| 20260503020228 | 42 | 191 | 0.0 | 0.0 | 0.00 | 0.00 | 0.00 | 79 | 1019.0 |
| 20260503015724 | 43 | 191 | 0.0 | 0.0 | 0.00 | 0.00 | 0.00 | 81 | 1019.0 |
| 20260503015221 | 43 | 191 | 0.0 | 0.0 | 0.00 | 0.00 | 0.00 | 81 | 1018.7 |
| 20260503014717 | 44 | 191 | 0.0 | 0.0 | 0.00 | 0.00 | 0.00 | 79 | 1019.0 |
| 20260503014215 | 44 | 191 | 0.0 | 0.0 | 0.00 | 0.00 | 0.00 | 71 | 1018.7 |
| 20260503013712 | 44 | 192 | 0.0 | 0.0 | 0.00 | 0.00 | 0.00 | 68 | 1018.8 |
| 20260503013210 | 44 | 193 | 0.0 | 1.0 | 0.00 | 0.00 | 0.00 | 71 | 1018.7 |
| 20260503012707 | 45 | 193 | 1.0 | 1.0 | 0.00 | 0.00 | 0.00 | 76 | 1018.5 |
| 20260503012204 | 45 | 194 | 1.0 | 1.0 | 0.00 | 0.00 | 0.00 | 74 | 1018.5 |
| 20260503011700 | 46 | 188 | 0.0 | 0.0 | 0.00 | 0.00 | 0.00 | 72 | 1018.6 |
| 20260503011157 | 46 | 188 | 0.0 | 0.0 | 0.00 | 0.00 | 0.00 | 73 | 1018.6 |
| 20260503010653 | 47 | 186 | 0.0 | 0.0 | 0.00 | 0.00 | 0.00 | 70 | 1018.6 |
| 20260503010151 | 48 | 185 | 0.0 | 0.0 | 0.00 | 0.00 | 0.00 | 65 | 1018.5 |
| 20260503005648 | 48 | 181 | 0.0 | 0.0 | 0.00 | 0.00 | 0.00 | 54 | 1018.4 |
| 20260503005145 | 48 | 181 | 0.0 | 0.0 | 0.00 | 0.00 | 0.00 | 53 | 1018.6 |
| 20260503004641 | 48 | 181 | 0.0 | 0.0 | 0.00 | 0.00 | 0.00 | 56 | 1018.5 |
| 20260503004140 | 49 | 182 | 0.0 | 0.0 | 0.00 | 0.00 | 0.00 | 55 | 1018.8 |
| 20260503003636 | 50 | 233 | 0.0 | 0.0 | 0.00 | 0.00 | 0.00 | 52 | 1018.6 |
| 20260503003133 | 50 | 307 | 1.0 | 1.0 | 0.00 | 0.00 | 0.00 | 54 | 1018.6 |
| 20260503002630 | 50 | 309 | 2.0 | 2.0 | 0.00 | 0.00 | 0.00 | 51 | 1018.7 |
| 20260503002127 | 51 | 333 | 1.0 | 2.0 | 0.00 | 0.00 | 0.00 | 52 | 1018.7 |
| 20260503001623 | 51 | 353 | 1.0 | 2.0 | 0.00 | 0.00 | 0.00 | 51 | 1018.7 |
| 20260503001120 | 51 | 338 | 2.0 | 2.0 | 0.00 | 0.00 | 0.00 | 51 | 1018.5 |
| 20260503000618 | 51 | 330 | 3.0 | 3.0 | 0.00 | 0.00 | 0.00 | 47 | 1018.5 |
| 20260503000115 | 51 | 305 | 3.0 | 3.0 | 0.00 | 0.00 | 0.00 | 46 | 1018.6 |
| 20260502235611 | 51 | 340 | 4.0 | 5.0 | 0.00 | 0.00 | 0.00 | 50 | 1018.5 |
| 20260502235110 | 51 | 353 | 5.0 | 6.0 | 0.00 | 0.00 | 0.00 | 48 | 1018.5 |
| 20260502234605 | 52 | 336 | 5.0 | 6.0 | 0.00 | 0.00 | 0.00 | 47 | 1018.8 |
| 20260502234103 | 52 | 334 | 6.0 | 7.0 | 0.00 | 0.00 | 0.00 | 46 | 1018.7 |
| 20260502233603 | 52 | 337 | 7.0 | 8.0 | 0.00 | 0.00 | 0.00 | 45 | 1018.8 |
| 20260502233101 | 52 | 349 | 7.0 | 9.0 | 0.00 | 0.00 | 0.00 | 44 | 1018.7 |
| 20260502232556 | 52 | 349 | 8.0 | 8.0 | 0.00 | 0.00 | 0.00 | 40 | 1018.7 |
| 20260502232054 | 52 | 336 | 8.0 | 10.0 | 0.00 | 0.00 | 0.00 | 43 | 1018.5 |
| 20260502231551 | 53 | 8 | 7.0 | 7.0 | 0.00 | 0.00 | 0.00 | 41 | 1018.7 |
| 20260502231049 | 53 | 9 | 6.0 | 7.0 | 0.00 | 0.00 | 0.00 | 44 | 1018.7 |
| 20260502230547 | 53 | 355 | 10.0 | 11.0 | 0.00 | 0.00 | 0.00 | 41 | 1018.8 |
| 20260502230045 | 53 | 344 | 10.0 | 11.0 | 0.00 | 0.00 | 0.00 | 39 | 1018.7 |
| 20260502225540 | 54 | 1 | 10.0 | 10.0 | 0.00 | 0.00 | 0.00 | 39 | 1018.5 |
| 20260502225037 | 54 | 343 | 7.0 | 8.0 | 0.00 | 0.00 | 0.00 | 39 | 1018.6 |
| 20260502224533 | 55 | 339 | 11.0 | 11.0 | 0.00 | 0.00 | 0.00 | 39 | 1018.7 |
| 20260502224031 | 54 | 333 | 8.0 | 10.0 | 0.00 | 0.00 | 0.00 | 39 | 1018.8 |
| 20260502223528 | 54 | 358 | 4.0 | 5.0 | 0.00 | 0.00 | 0.00 | 37 | 1019.0 |
| 20260502223027 | 54 | 2 | 9.0 | 10.0 | 0.00 | 0.00 | 0.00 | 36 | 1018.5 |
| 20260502222523 | 55 | 353 | 10.0 | 11.0 | 0.00 | 0.00 | 0.00 | 38 | 1018.8 |
| 20260502222020 | 54 | 351 | 9.0 | 9.0 | 0.00 | 0.00 | 0.00 | 37 | 1018.8 |
| 20260502221515 | 55 | 29 | 9.0 | 10.0 | 0.00 | 0.00 | 0.00 | 38 | 1018.6 |
| 20260502221013 | 55 | 174 | 1.0 | 1.0 | 0.00 | 0.00 | 0.00 | 39 | 1018.7 |
| 20260502220508 | 54 | 5 | 8.0 | 9.0 | 0.00 | 0.00 | 0.00 | 40 | 1018.6 |
| 20260502220005 | 53 | 14 | 7.0 | 9.0 | 0.00 | 0.00 | 0.00 | 38 | 1018.7 |